Гаровка 2-я

Карта отелей и гостиниц, располагающихся рядом с аэропортом Гаровка 2-я :

Гаровка 2-я Хабаровский край 48° 23' 46.6116" N, 135° 13' 25.6188" E
Гаровка 2-я Хабаровский край 48° 23' 46.6116" N, 135° 13' 25.6188" E
Код аэродрома ИКАО: 
XHHG
Код аэродрома RU: 
ЬХХГ
Координаты: 
N48.39628° E135.22378°
Превышение над уровнем моря : 
72
Основная полоса: 
04/22
Курс магнитный: 
041,1/221,1
Длина основной ВПП: 
2300
Ширина основной ВПП: 
37
Покрытие основной ВПП: 
Твёрдое (бетон)
Освещение ВПП: 
Нет
Тип: 
Аэродром
Класс аэродрома: 
Принадлежность: 
МО
Статус: 
Действующий
Сайт: 
E-mail аэродрома: 
Страна: 
Россия
Регион: 
Хабаровский край
Город: 
Дополнительная информация: 
Оператор: ВКС России. Ранее базировался 825-й овп.

Найти трансфер

С помощью этой формы Вы можете найти трансфер из аэропорта Гаровка 2-я в город, аэропорт или вокзал:

Карта места

Javascript is required to view this map.

Погода в аэропортах:

Авиационная погода в Павлодаре

Регион: 
Погода METAR: 
UASP 241400Z 28011MPS 9999 -SHRA OVC011CB 07/06 Q1004 R21/290260 NOSIG RMK QFE742/0989
Время наблюдения: 
2020-09-24T14:00:00Z
Температура C: 
7.0
Точка росы: 
6.0
Направление ветра: 
280
Скорость ветра (узлы): 
21
Метеорологическая видимость: 
6.21
Явления погоды: 
-SHRA
Условия полета: 
MVFR
Аэропорт подробнее: 

Авиационная погода в Якутске

Регион: 
Погода METAR: 
UEEE 241400Z 05002MPS 1500 R23L/P2000N FU NSC 04/M01 Q1026 R23L/09//60 NOSIG RMK QFE761
Время наблюдения: 
2020-09-24T14:00:00Z
Температура C: 
4.0
Точка росы: 
-1.0
Направление ветра: 
50
Скорость ветра (узлы): 
4
Метеорологическая видимость: 
0.93
Явления погоды: 
FU
Условия полета: 
LIFR
Аэропорт подробнее: 

Авиационная погода в Иркутске

Регион: 
Погода METAR: 
UIII 241400Z 08002MPS 4700 BR NSC 06/06 Q1007 R12/60D NOSIG RMK QFE713/0951
Время наблюдения: 
2020-09-24T14:00:00Z
Температура C: 
6.0
Точка росы: 
6.0
Направление ветра: 
80
Скорость ветра (узлы): 
4
Метеорологическая видимость: 
2.92
Явления погоды: 
BR
Условия полета: 
IFR
Аэропорт подробнее: 

Авиационная погода в Игнатьево

Регион: 
Погода METAR: 
UHBB 241400Z 26001MPS 7000 0550N PRFG NSC 09/09 Q1018 R36/290250 TEMPO 0700 FG RMK QFE746/0994
Время наблюдения: 
2020-09-24T14:00:00Z
Температура C: 
9.0
Точка росы: 
9.0
Направление ветра: 
260
Скорость ветра (узлы): 
2
Метеорологическая видимость: 
4.35
Явления погоды: 
PRFG
Условия полета: 
MVFR
Аэропорт подробнее: